sensor_id;sensor_type;location;lat;lon;timestamp;P1;durP1;ratioP1;P2;durP2;ratioP2
51034;SDS011;37062;52.546;13.230;2023-04-22T00:01:44;9.90;;;5.72;;
51034;SDS011;37062;52.546;13.230;2023-04-22T00:04:13;7.15;;;4.97;;
51034;SDS011;37062;52.546;13.230;2023-04-22T00:06:43;13.35;;;5.28;;
51034;SDS011;37062;52.546;13.230;2023-04-22T00:09:11;9.20;;;5.18;;
51034;SDS011;37062;52.546;13.230;2023-04-22T00:11:40;6.97;;;5.30;;
51034;SDS011;37062;52.546;13.230;2023-04-22T00:14:08;10.77;;;5.32;;
51034;SDS011;37062;52.546;13.230;2023-04-22T00:16:36;5.80;;;5.20;;
51034;SDS011;37062;52.546;13.230;2023-04-22T00:19:05;7.45;;;5.60;;
51034;SDS011;37062;52.546;13.230;2023-04-22T00:21:34;8.38;;;5.85;;
51034;SDS011;37062;52.546;13.230;2023-04-22T00:24:04;5.85;;;5.25;;
51034;SDS011;37062;52.546;13.230;2023-04-22T00:26:32;7.20;;;5.15;;
51034;SDS011;37062;52.546;13.230;2023-04-22T00:29:01;10.05;;;5.20;;
51034;SDS011;37062;52.546;13.230;2023-04-22T00:31:29;8.85;;;5.30;;
51034;SDS011;37062;52.546;13.230;2023-04-22T00:33:57;7.93;;;4.88;;
51034;SDS011;37062;52.546;13.230;2023-04-22T00:36:26;7.90;;;5.22;;
51034;SDS011;37062;52.546;13.230;2023-04-22T00:38:54;7.95;;;5.40;;
51034;SDS011;37062;52.546;13.230;2023-04-22T00:41:24;6.72;;;5.15;;
51034;SDS011;37062;52.546;13.230;2023-04-22T00:43:54;10.98;;;5.10;;
51034;SDS011;37062;52.546;13.230;2023-04-22T00:46:22;7.22;;;5.55;;
51034;SDS011;37062;52.546;13.230;2023-04-22T00:48:51;7.28;;;5.13;;
51034;SDS011;37062;52.546;13.230;2023-04-22T00:51:20;9.43;;;5.00;;
51034;SDS011;37062;52.546;13.230;2023-04-22T00:53:48;11.10;;;5.68;;
51034;SDS011;37062;52.546;13.230;2023-04-22T00:56:16;7.97;;;5.25;;
51034;SDS011;37062;52.546;13.230;2023-04-22T00:58:47;9.50;;;5.20;;
51034;SDS011;37062;52.546;13.230;2023-04-22T01:01:16;8.73;;;5.55;;
51034;SDS011;37062;52.546;13.230;2023-04-22T01:03:45;7.25;;;5.82;;
51034;SDS011;37062;52.546;13.230;2023-04-22T01:06:16;7.88;;;5.50;;
51034;SDS011;37062;52.546;13.230;2023-04-22T01:08:46;9.93;;;5.00;;
51034;SDS011;37062;52.546;13.230;2023-04-22T01:11:15;8.35;;;5.32;;
51034;SDS011;37062;52.546;13.230;2023-04-22T01:13:43;6.43;;;5.63;;
51034;SDS011;37062;52.546;13.230;2023-04-22T01:16:14;6.68;;;5.47;;
51034;SDS011;37062;52.546;13.230;2023-04-22T01:18:42;7.38;;;5.40;;
51034;SDS011;37062;52.546;13.230;2023-04-22T01:21:10;10.35;;;6.43;;
51034;SDS011;37062;52.546;13.230;2023-04-22T01:23:40;10.55;;;6.15;;
51034;SDS011;37062;52.546;13.230;2023-04-22T01:26:09;8.00;;;5.25;;
51034;SDS011;37062;52.546;13.230;2023-04-22T01:28:37;6.88;;;5.55;;
51034;SDS011;37062;52.546;13.230;2023-04-22T01:31:06;6.65;;;5.20;;
51034;SDS011;37062;52.546;13.230;2023-04-22T01:33:35;7.03;;;5.40;;
51034;SDS011;37062;52.546;13.230;2023-04-22T01:36:03;6.97;;;5.30;;
51034;SDS011;37062;52.546;13.230;2023-04-22T01:38:32;8.63;;;6.20;;
51034;SDS011;37062;52.546;13.230;2023-04-22T01:41:04;6.07;;;5.13;;
51034;SDS011;37062;52.546;13.230;2023-04-22T01:43:32;7.38;;;5.57;;
51034;SDS011;37062;52.546;13.230;2023-04-22T01:46:03;7.07;;;5.78;;
51034;SDS011;37062;52.546;13.230;2023-04-22T01:48:32;6.72;;;5.88;;
51034;SDS011;37062;52.546;13.230;2023-04-22T01:51:03;7.57;;;6.00;;
51034;SDS011;37062;52.546;13.230;2023-04-22T01:53:32;7.78;;;5.95;;
51034;SDS011;37062;52.546;13.230;2023-04-22T01:56:00;8.40;;;6.00;;
51034;SDS011;37062;52.546;13.230;2023-04-22T01:58:32;8.05;;;6.03;;
51034;SDS011;37062;52.546;13.230;2023-04-22T02:01:03;7.30;;;6.28;;
51034;SDS011;37062;52.546;13.230;2023-04-22T02:03:31;8.05;;;6.20;;
51034;SDS011;37062;52.546;13.230;2023-04-22T02:06:01;8.80;;;5.88;;
51034;SDS011;37062;52.546;13.230;2023-04-22T02:08:29;8.98;;;5.82;;
51034;SDS011;37062;52.546;13.230;2023-04-22T02:10:58;10.73;;;5.70;;
51034;SDS011;37062;52.546;13.230;2023-04-22T02:13:34;9.18;;;5.93;;
51034;SDS011;37062;52.546;13.230;2023-04-22T02:16:03;7.63;;;5.82;;
51034;SDS011;37062;52.546;13.230;2023-04-22T02:18:32;7.53;;;5.80;;
51034;SDS011;37062;52.546;13.230;2023-04-22T02:21:01;6.97;;;5.78;;
51034;SDS011;37062;52.546;13.230;2023-04-22T02:23:30;7.57;;;5.88;;
51034;SDS011;37062;52.546;13.230;2023-04-22T02:25:58;8.30;;;5.70;;
51034;SDS011;37062;52.546;13.230;2023-04-22T02:28:27;10.60;;;5.72;;
51034;SDS011;37062;52.546;13.230;2023-04-22T02:30:57;7.35;;;5.88;;
51034;SDS011;37062;52.546;13.230;2023-04-22T02:33:26;7.13;;;6.15;;
51034;SDS011;37062;52.546;13.230;2023-04-22T02:35:54;8.32;;;6.05;;
51034;SDS011;37062;52.546;13.230;2023-04-22T02:38:22;8.68;;;6.00;;
51034;SDS011;37062;52.546;13.230;2023-04-22T02:40:51;8.70;;;6.30;;
51034;SDS011;37062;52.546;13.230;2023-04-22T02:43:19;7.43;;;5.85;;
51034;SDS011;37062;52.546;13.230;2023-04-22T02:45:49;8.73;;;5.60;;
51034;SDS011;37062;52.546;13.230;2023-04-22T02:48:19;9.30;;;6.25;;
51034;SDS011;37062;52.546;13.230;2023-04-22T02:50:48;9.50;;;6.15;;
51034;SDS011;37062;52.546;13.230;2023-04-22T02:53:17;8.48;;;5.97;;
51034;SDS011;37062;52.546;13.230;2023-04-22T02:55:45;12.32;;;6.05;;
51034;SDS011;37062;52.546;13.230;2023-04-22T02:58:13;9.10;;;5.90;;
51034;SDS011;37062;52.546;13.230;2023-04-22T03:00:42;7.85;;;6.25;;
51034;SDS011;37062;52.546;13.230;2023-04-22T03:03:10;9.55;;;6.10;;
51034;SDS011;37062;52.546;13.230;2023-04-22T03:05:40;9.82;;;5.97;;
51034;SDS011;37062;52.546;13.230;2023-04-22T03:08:09;9.90;;;6.00;;
51034;SDS011;37062;52.546;13.230;2023-04-22T03:10:37;9.18;;;6.40;;
51034;SDS011;37062;52.546;13.230;2023-04-22T03:13:05;12.75;;;6.45;;
51034;SDS011;37062;52.546;13.230;2023-04-22T03:15:35;8.25;;;5.68;;
51034;SDS011;37062;52.546;13.230;2023-04-22T03:18:03;9.10;;;6.13;;
51034;SDS011;37062;52.546;13.230;2023-04-22T03:20:32;9.70;;;6.00;;
51034;SDS011;37062;52.546;13.230;2023-04-22T03:23:03;7.55;;;6.07;;
51034;SDS011;37062;52.546;13.230;2023-04-22T03:25:32;7.80;;;5.85;;
51034;SDS011;37062;52.546;13.230;2023-04-22T03:28:01;8.00;;;5.97;;
51034;SDS011;37062;52.546;13.230;2023-04-22T03:30:29;7.80;;;6.03;;
51034;SDS011;37062;52.546;13.230;2023-04-22T03:32:58;10.98;;;6.03;;
51034;SDS011;37062;52.546;13.230;2023-04-22T03:35:47;8.20;;;6.25;;
51034;SDS011;37062;52.546;13.230;2023-04-22T03:38:18;8.90;;;6.22;;
51034;SDS011;37062;52.546;13.230;2023-04-22T03:40:48;10.63;;;6.20;;
51034;SDS011;37062;52.546;13.230;2023-04-22T03:43:26;7.95;;;6.25;;
51034;SDS011;37062;52.546;13.230;2023-04-22T03:46:01;9.77;;;6.43;;
51034;SDS011;37062;52.546;13.230;2023-04-22T03:48:32;8.15;;;5.75;;
51034;SDS011;37062;52.546;13.230;2023-04-22T03:51:06;9.55;;;6.55;;
51034;SDS011;37062;52.546;13.230;2023-04-22T03:53:38;8.10;;;6.13;;
51034;SDS011;37062;52.546;13.230;2023-04-22T03:56:14;7.85;;;6.10;;
51034;SDS011;37062;52.546;13.230;2023-04-22T03:58:44;11.25;;;6.65;;
51034;SDS011;37062;52.546;13.230;2023-04-22T04:01:14;7.90;;;6.40;;
51034;SDS011;37062;52.546;13.230;2023-04-22T04:03:48;12.30;;;6.18;;
51034;SDS011;37062;52.546;13.230;2023-04-22T04:06:18;8.68;;;6.53;;
51034;SDS011;37062;52.546;13.230;2023-04-22T04:08:48;8.77;;;6.22;;
51034;SDS011;37062;52.546;13.230;2023-04-22T04:11:17;8.95;;;6.95;;
51034;SDS011;37062;52.546;13.230;2023-04-22T04:13:46;13.48;;;6.65;;
51034;SDS011;37062;52.546;13.230;2023-04-22T04:16:25;10.50;;;6.63;;
51034;SDS011;37062;52.546;13.230;2023-04-22T04:19:01;9.05;;;6.15;;
51034;SDS011;37062;52.546;13.230;2023-04-22T04:21:33;10.43;;;6.72;;
51034;SDS011;37062;52.546;13.230;2023-04-22T04:24:05;11.43;;;6.82;;
51034;SDS011;37062;52.546;13.230;2023-04-22T04:26:40;8.85;;;6.75;;
51034;SDS011;37062;52.546;13.230;2023-04-22T04:29:13;8.60;;;6.97;;
51034;SDS011;37062;52.546;13.230;2023-04-22T04:31:47;10.35;;;6.65;;
51034;SDS011;37062;52.546;13.230;2023-04-22T04:34:15;9.35;;;6.32;;
51034;SDS011;37062;52.546;13.230;2023-04-22T04:36:45;10.23;;;7.43;;
51034;SDS011;37062;52.546;13.230;2023-04-22T04:39:21;11.13;;;6.78;;
51034;SDS011;37062;52.546;13.230;2023-04-22T04:41:52;13.15;;;6.97;;
51034;SDS011;37062;52.546;13.230;2023-04-22T04:44:25;8.07;;;5.97;;
51034;SDS011;37062;52.546;13.230;2023-04-22T04:46:58;9.32;;;6.68;;
51034;SDS011;37062;52.546;13.230;2023-04-22T04:49:26;9.35;;;7.03;;
51034;SDS011;37062;52.546;13.230;2023-04-22T04:51:58;9.95;;;6.90;;
51034;SDS011;37062;52.546;13.230;2023-04-22T04:54:29;8.88;;;6.50;;
51034;SDS011;37062;52.546;13.230;2023-04-22T04:56:58;12.00;;;6.82;;
51034;SDS011;37062;52.546;13.230;2023-04-22T04:59:27;12.25;;;6.93;;
51034;SDS011;37062;52.546;13.230;2023-04-22T05:01:57;12.57;;;7.90;;
51034;SDS011;37062;52.546;13.230;2023-04-22T05:04:27;11.07;;;6.63;;
51034;SDS011;37062;52.546;13.230;2023-04-22T05:06:56;10.57;;;6.85;;
51034;SDS011;37062;52.546;13.230;2023-04-22T05:09:25;7.25;;;6.40;;
51034;SDS011;37062;52.546;13.230;2023-04-22T05:11:55;7.38;;;6.40;;
51034;SDS011;37062;52.546;13.230;2023-04-22T05:14:24;8.63;;;7.15;;
51034;SDS011;37062;52.546;13.230;2023-04-22T05:16:52;9.80;;;6.70;;
51034;SDS011;37062;52.546;13.230;2023-04-22T05:19:21;7.85;;;6.78;;
51034;SDS011;37062;52.546;13.230;2023-04-22T05:21:52;8.25;;;6.35;;
51034;SDS011;37062;52.546;13.230;2023-04-22T05:24:21;8.80;;;6.38;;
51034;SDS011;37062;52.546;13.230;2023-04-22T05:26:49;9.38;;;6.68;;
51034;SDS011;37062;52.546;13.230;2023-04-22T05:29:20;7.53;;;6.50;;
51034;SDS011;37062;52.546;13.230;2023-04-22T05:31:48;9.90;;;6.40;;
51034;SDS011;37062;52.546;13.230;2023-04-22T05:34:17;12.25;;;7.07;;
51034;SDS011;37062;52.546;13.230;2023-04-22T05:36:45;9.90;;;6.95;;
51034;SDS011;37062;52.546;13.230;2023-04-22T05:39:14;10.20;;;6.60;;
51034;SDS011;37062;52.546;13.230;2023-04-22T05:41:43;8.52;;;6.78;;
51034;SDS011;37062;52.546;13.230;2023-04-22T05:44:12;9.25;;;6.85;;
51034;SDS011;37062;52.546;13.230;2023-04-22T05:46:44;9.43;;;7.00;;
51034;SDS011;37062;52.546;13.230;2023-04-22T05:49:13;7.55;;;6.32;;
51034;SDS011;37062;52.546;13.230;2023-04-22T05:52:00;11.30;;;7.00;;
51034;SDS011;37062;52.546;13.230;2023-04-22T05:54:38;11.88;;;6.97;;
51034;SDS011;37062;52.546;13.230;2023-04-22T05:57:07;9.77;;;6.90;;
51034;SDS011;37062;52.546;13.230;2023-04-22T05:59:35;8.65;;;6.88;;
51034;SDS011;37062;52.546;13.230;2023-04-22T06:02:07;9.93;;;6.95;;
51034;SDS011;37062;52.546;13.230;2023-04-22T06:04:35;7.82;;;6.50;;
51034;SDS011;37062;52.546;13.230;2023-04-22T06:07:05;10.52;;;6.53;;
51034;SDS011;37062;52.546;13.230;2023-04-22T06:09:33;11.80;;;7.32;;
51034;SDS011;37062;52.546;13.230;2023-04-22T06:12:01;9.85;;;7.10;;
51034;SDS011;37062;52.546;13.230;2023-04-22T06:14:30;9.77;;;7.00;;
51034;SDS011;37062;52.546;13.230;2023-04-22T06:16:59;9.77;;;7.30;;
51034;SDS011;37062;52.546;13.230;2023-04-22T06:19:28;11.35;;;7.38;;
51034;SDS011;37062;52.546;13.230;2023-04-22T06:21:57;8.85;;;7.38;;
51034;SDS011;37062;52.546;13.230;2023-04-22T06:24:25;10.65;;;7.95;;
51034;SDS011;37062;52.546;13.230;2023-04-22T06:26:54;8.52;;;7.10;;
51034;SDS011;37062;52.546;13.230;2023-04-22T06:29:27;8.93;;;7.03;;
51034;SDS011;37062;52.546;13.230;2023-04-22T06:31:55;10.40;;;7.13;;
51034;SDS011;37062;52.546;13.230;2023-04-22T06:37:13;11.30;;;7.10;;
51034;SDS011;37062;52.546;13.230;2023-04-22T06:39:42;9.63;;;7.15;;
51034;SDS011;37062;52.546;13.230;2023-04-22T06:42:30;9.30;;;6.97;;
51034;SDS011;37062;52.546;13.230;2023-04-22T06:45:18;10.05;;;7.65;;
51034;SDS011;37062;52.546;13.230;2023-04-22T06:48:06;11.50;;;7.00;;
51034;SDS011;37062;52.546;13.230;2023-04-22T06:50:54;10.55;;;7.47;;
51034;SDS011;37062;52.546;13.230;2023-04-22T06:53:25;9.38;;;7.10;;
51034;SDS011;37062;52.546;13.230;2023-04-22T06:55:54;11.88;;;7.07;;
51034;SDS011;37062;52.546;13.230;2023-04-22T06:58:22;7.85;;;6.35;;
51034;SDS011;37062;52.546;13.230;2023-04-22T07:00:50;7.97;;;7.07;;
51034;SDS011;37062;52.546;13.230;2023-04-22T07:03:18;8.65;;;6.90;;
51034;SDS011;37062;52.546;13.230;2023-04-22T07:05:58;8.32;;;6.47;;
51034;SDS011;37062;52.546;13.230;2023-04-22T07:08:30;9.75;;;7.10;;
51034;SDS011;37062;52.546;13.230;2023-04-22T07:10:58;9.38;;;7.50;;
51034;SDS011;37062;52.546;13.230;2023-04-22T07:13:35;7.05;;;6.35;;
51034;SDS011;37062;52.546;13.230;2023-04-22T07:16:04;7.60;;;6.60;;
51034;SDS011;37062;52.546;13.230;2023-04-22T07:18:32;8.18;;;6.50;;
51034;SDS011;37062;52.546;13.230;2023-04-22T07:21:01;10.30;;;7.13;;
51034;SDS011;37062;52.546;13.230;2023-04-22T07:23:31;9.02;;;6.60;;
51034;SDS011;37062;52.546;13.230;2023-04-22T07:25:59;7.25;;;6.38;;
51034;SDS011;37062;52.546;13.230;2023-04-22T07:28:27;10.60;;;7.13;;
51034;SDS011;37062;52.546;13.230;2023-04-22T07:30:55;10.05;;;7.50;;
51034;SDS011;37062;52.546;13.230;2023-04-22T07:33:23;8.02;;;6.90;;
51034;SDS011;37062;52.546;13.230;2023-04-22T07:35:52;8.02;;;6.72;;
51034;SDS011;37062;52.546;13.230;2023-04-22T07:38:20;7.13;;;6.43;;
51034;SDS011;37062;52.546;13.230;2023-04-22T07:40:49;11.02;;;7.00;;
51034;SDS011;37062;52.546;13.230;2023-04-22T07:43:18;10.07;;;6.13;;
51034;SDS011;37062;52.546;13.230;2023-04-22T07:45:46;7.55;;;6.40;;
51034;SDS011;37062;52.546;13.230;2023-04-22T07:48:14;9.70;;;7.20;;
51034;SDS011;37062;52.546;13.230;2023-04-22T07:50:43;7.85;;;6.75;;
51034;SDS011;37062;52.546;13.230;2023-04-22T07:53:11;8.25;;;6.28;;
51034;SDS011;37062;52.546;13.230;2023-04-22T07:55:41;8.23;;;6.40;;
51034;SDS011;37062;52.546;13.230;2023-04-22T07:58:10;10.90;;;6.93;;
51034;SDS011;37062;52.546;13.230;2023-04-22T08:00:38;9.40;;;7.05;;
51034;SDS011;37062;52.546;13.230;2023-04-22T08:03:07;9.15;;;7.40;;
51034;SDS011;37062;52.546;13.230;2023-04-22T08:05:35;8.23;;;6.53;;
51034;SDS011;37062;52.546;13.230;2023-04-22T08:08:03;7.72;;;6.40;;
51034;SDS011;37062;52.546;13.230;2023-04-22T08:10:32;7.20;;;6.13;;
51034;SDS011;37062;52.546;13.230;2023-04-22T08:13:00;7.25;;;6.50;;
51034;SDS011;37062;52.546;13.230;2023-04-22T08:15:30;13.00;;;7.18;;
51034;SDS011;37062;52.546;13.230;2023-04-22T08:17:58;11.07;;;6.90;;
51034;SDS011;37062;52.546;13.230;2023-04-22T08:20:26;11.85;;;6.90;;
51034;SDS011;37062;52.546;13.230;2023-04-22T08:22:55;6.80;;;6.10;;
51034;SDS011;37062;52.546;13.230;2023-04-22T08:25:25;7.82;;;6.43;;
51034;SDS011;37062;52.546;13.230;2023-04-22T08:27:54;7.45;;;5.95;;
51034;SDS011;37062;52.546;13.230;2023-04-22T08:30:23;9.38;;;6.47;;
51034;SDS011;37062;52.546;13.230;2023-04-22T08:32:52;11.00;;;6.30;;
51034;SDS011;37062;52.546;13.230;2023-04-22T08:35:20;9.70;;;5.95;;
51034;SDS011;37062;52.546;13.230;2023-04-22T08:37:49;8.57;;;5.82;;
51034;SDS011;37062;52.546;13.230;2023-04-22T08:40:17;6.43;;;5.70;;
51034;SDS011;37062;52.546;13.230;2023-04-22T08:42:45;8.80;;;5.45;;
51034;SDS011;37062;52.546;13.230;2023-04-22T08:45:14;10.07;;;6.05;;
51034;SDS011;37062;52.546;13.230;2023-04-22T08:47:43;8.95;;;5.80;;
51034;SDS011;37062;52.546;13.230;2023-04-22T08:50:13;8.38;;;6.57;;
51034;SDS011;37062;52.546;13.230;2023-04-22T08:52:42;8.48;;;5.50;;
51034;SDS011;37062;52.546;13.230;2023-04-22T08:55:10;7.15;;;5.68;;
51034;SDS011;37062;52.546;13.230;2023-04-22T08:57:39;8.18;;;5.65;;
51034;SDS011;37062;52.546;13.230;2023-04-22T09:00:08;11.45;;;6.20;;
51034;SDS011;37062;52.546;13.230;2023-04-22T09:02:38;7.57;;;5.45;;
51034;SDS011;37062;52.546;13.230;2023-04-22T09:05:11;10.35;;;5.70;;
51034;SDS011;37062;52.546;13.230;2023-04-22T09:07:42;7.78;;;5.70;;
51034;SDS011;37062;52.546;13.230;2023-04-22T09:10:11;9.43;;;5.85;;
51034;SDS011;37062;52.546;13.230;2023-04-22T09:12:40;10.00;;;6.00;;
51034;SDS011;37062;52.546;13.230;2023-04-22T09:15:09;5.88;;;5.25;;
51034;SDS011;37062;52.546;13.230;2023-04-22T09:17:38;9.40;;;5.40;;
51034;SDS011;37062;52.546;13.230;2023-04-22T09:20:09;7.18;;;5.80;;
51034;SDS011;37062;52.546;13.230;2023-04-22T09:22:40;7.30;;;5.30;;
51034;SDS011;37062;52.546;13.230;2023-04-22T09:25:16;7.97;;;5.40;;
51034;SDS011;37062;52.546;13.230;2023-04-22T09:27:48;6.30;;;4.72;;
51034;SDS011;37062;52.546;13.230;2023-04-22T09:30:18;7.85;;;5.97;;
51034;SDS011;37062;52.546;13.230;2023-04-22T09:32:51;8.18;;;5.70;;
51034;SDS011;37062;52.546;13.230;2023-04-22T09:35:27;10.60;;;6.20;;
51034;SDS011;37062;52.546;13.230;2023-04-22T09:37:59;9.82;;;5.90;;
51034;SDS011;37062;52.546;13.230;2023-04-22T09:40:29;10.70;;;5.57;;
51034;SDS011;37062;52.546;13.230;2023-04-22T09:42:59;9.45;;;5.82;;
51034;SDS011;37062;52.546;13.230;2023-04-22T09:45:29;8.30;;;6.10;;
51034;SDS011;37062;52.546;13.230;2023-04-22T09:47:59;8.68;;;5.43;;
51034;SDS011;37062;52.546;13.230;2023-04-22T09:50:29;9.48;;;5.65;;
51034;SDS011;37062;52.546;13.230;2023-04-22T09:52:59;11.10;;;5.15;;
51034;SDS011;37062;52.546;13.230;2023-04-22T09:55:30;7.97;;;5.25;;
51034;SDS011;37062;52.546;13.230;2023-04-22T09:58:04;10.13;;;6.00;;
51034;SDS011;37062;52.546;13.230;2023-04-22T10:00:34;8.77;;;4.90;;
51034;SDS011;37062;52.546;13.230;2023-04-22T10:03:06;9.52;;;5.55;;
51034;SDS011;37062;52.546;13.230;2023-04-22T10:05:36;8.55;;;5.05;;
51034;SDS011;37062;52.546;13.230;2023-04-22T10:08:06;7.13;;;5.63;;
51034;SDS011;37062;52.546;13.230;2023-04-22T10:10:36;9.88;;;6.20;;
51034;SDS011;37062;52.546;13.230;2023-04-22T10:13:05;6.97;;;4.55;;
51034;SDS011;37062;52.546;13.230;2023-04-22T10:15:34;6.47;;;5.05;;
51034;SDS011;37062;52.546;13.230;2023-04-22T10:18:05;7.57;;;4.65;;
51034;SDS011;37062;52.546;13.230;2023-04-22T10:20:36;8.48;;;4.72;;
51034;SDS011;37062;52.546;13.230;2023-04-22T10:23:13;10.05;;;5.28;;
51034;SDS011;37062;52.546;13.230;2023-04-22T10:25:45;8.45;;;4.93;;
51034;SDS011;37062;52.546;13.230;2023-04-22T10:28:17;8.95;;;4.55;;
51034;SDS011;37062;52.546;13.230;2023-04-22T10:30:47;8.95;;;5.30;;
51034;SDS011;37062;52.546;13.230;2023-04-22T10:36:05;8.50;;;4.57;;
51034;SDS011;37062;52.546;13.230;2023-04-22T10:38:36;6.18;;;4.78;;
51034;SDS011;37062;52.546;13.230;2023-04-22T10:41:05;10.60;;;5.43;;
51034;SDS011;37062;52.546;13.230;2023-04-22T10:43:41;7.18;;;5.15;;
51034;SDS011;37062;52.546;13.230;2023-04-22T10:49:07;9.18;;;5.25;;
51034;SDS011;37062;52.546;13.230;2023-04-22T10:51:39;12.10;;;4.78;;
51034;SDS011;37062;52.546;13.230;2023-04-22T10:54:15;9.10;;;5.38;;
51034;SDS011;37062;52.546;13.230;2023-04-22T10:57:21;8.65;;;4.80;;
51034;SDS011;37062;52.546;13.230;2023-04-22T10:59:56;9.05;;;4.55;;
51034;SDS011;37062;52.546;13.230;2023-04-22T11:02:25;8.75;;;5.10;;
51034;SDS011;37062;52.546;13.230;2023-04-22T11:07:51;6.82;;;4.95;;
51034;SDS011;37062;52.546;13.230;2023-04-22T11:10:35;7.18;;;5.15;;
51034;SDS011;37062;52.546;13.230;2023-04-22T11:13:10;7.65;;;4.78;;
51034;SDS011;37062;52.546;13.230;2023-04-22T11:15:40;8.60;;;4.90;;
51034;SDS011;37062;52.546;13.230;2023-04-22T11:18:11;8.05;;;4.90;;
51034;SDS011;37062;52.546;13.230;2023-04-22T11:20:41;7.78;;;4.53;;
51034;SDS011;37062;52.546;13.230;2023-04-22T11:23:09;12.25;;;5.50;;
51034;SDS011;37062;52.546;13.230;2023-04-22T11:25:39;6.70;;;5.15;;
51034;SDS011;37062;52.546;13.230;2023-04-22T11:28:07;7.90;;;5.32;;
51034;SDS011;37062;52.546;13.230;2023-04-22T11:30:36;9.73;;;4.65;;
51034;SDS011;37062;52.546;13.230;2023-04-22T11:33:04;7.85;;;5.18;;
51034;SDS011;37062;52.546;13.230;2023-04-22T11:35:33;9.13;;;5.25;;
51034;SDS011;37062;52.546;13.230;2023-04-22T11:38:02;9.30;;;5.20;;
51034;SDS011;37062;52.546;13.230;2023-04-22T11:40:32;7.00;;;4.95;;
51034;SDS011;37062;52.546;13.230;2023-04-22T11:43:08;5.95;;;5.00;;
51034;SDS011;37062;52.546;13.230;2023-04-22T11:45:40;7.93;;;5.05;;
51034;SDS011;37062;52.546;13.230;2023-04-22T11:48:09;7.57;;;5.18;;
51034;SDS011;37062;52.546;13.230;2023-04-22T11:50:39;9.85;;;4.45;;
51034;SDS011;37062;52.546;13.230;2023-04-22T11:53:13;8.40;;;4.95;;
51034;SDS011;37062;52.546;13.230;2023-04-22T11:55:48;7.10;;;4.68;;
51034;SDS011;37062;52.546;13.230;2023-04-22T11:58:22;8.05;;;4.80;;
51034;SDS011;37062;52.546;13.230;2023-04-22T12:00:53;6.72;;;4.30;;
51034;SDS011;37062;52.546;13.230;2023-04-22T12:03:22;7.20;;;4.40;;
51034;SDS011;37062;52.546;13.230;2023-04-22T12:05:53;8.18;;;4.55;;
51034;SDS011;37062;52.546;13.230;2023-04-22T12:08:22;6.15;;;4.65;;
51034;SDS011;37062;52.546;13.230;2023-04-22T12:10:55;6.88;;;4.60;;
51034;SDS011;37062;52.546;13.230;2023-04-22T12:13:27;8.65;;;5.32;;
51034;SDS011;37062;52.546;13.230;2023-04-22T12:15:57;7.05;;;4.68;;
51034;SDS011;37062;52.546;13.230;2023-04-22T12:18:30;5.30;;;4.50;;
51034;SDS011;37062;52.546;13.230;2023-04-22T12:21:07;8.85;;;4.63;;
51034;SDS011;37062;52.546;13.230;2023-04-22T12:23:42;6.05;;;4.50;;
51034;SDS011;37062;52.546;13.230;2023-04-22T12:26:12;8.15;;;4.70;;
51034;SDS011;37062;52.546;13.230;2023-04-22T12:28:42;8.90;;;4.40;;
51034;SDS011;37062;52.546;13.230;2023-04-22T12:31:11;6.63;;;4.32;;
51034;SDS011;37062;52.546;13.230;2023-04-22T12:33:40;4.90;;;4.28;;
51034;SDS011;37062;52.546;13.230;2023-04-22T12:36:09;5.75;;;3.90;;
51034;SDS011;37062;52.546;13.230;2023-04-22T12:38:38;6.10;;;4.20;;
51034;SDS011;37062;52.546;13.230;2023-04-22T12:41:06;9.65;;;4.50;;
51034;SDS011;37062;52.546;13.230;2023-04-22T12:43:35;6.53;;;4.15;;
51034;SDS011;37062;52.546;13.230;2023-04-22T12:46:06;6.97;;;4.30;;
51034;SDS011;37062;52.546;13.230;2023-04-22T12:48:35;7.07;;;4.22;;
51034;SDS011;37062;52.546;13.230;2023-04-22T12:51:03;5.50;;;4.05;;
51034;SDS011;37062;52.546;13.230;2023-04-22T12:53:32;5.70;;;4.20;;
51034;SDS011;37062;52.546;13.230;2023-04-22T12:56:00;5.78;;;4.45;;
51034;SDS011;37062;52.546;13.230;2023-04-22T12:58:29;7.20;;;4.70;;
51034;SDS011;37062;52.546;13.230;2023-04-22T13:00:57;7.30;;;4.90;;
51034;SDS011;37062;52.546;13.230;2023-04-22T13:03:27;7.40;;;4.93;;
51034;SDS011;37062;52.546;13.230;2023-04-22T13:05:56;6.80;;;4.35;;
51034;SDS011;37062;52.546;13.230;2023-04-22T13:08:24;5.50;;;4.10;;
51034;SDS011;37062;52.546;13.230;2023-04-22T13:10:53;6.40;;;4.03;;
51034;SDS011;37062;52.546;13.230;2023-04-22T13:13:21;6.22;;;4.07;;
51034;SDS011;37062;52.546;13.230;2023-04-22T13:15:49;6.25;;;4.07;;
51034;SDS011;37062;52.546;13.230;2023-04-22T13:18:20;7.93;;;4.38;;
51034;SDS011;37062;52.546;13.230;2023-04-22T13:20:50;5.43;;;4.05;;
51034;SDS011;37062;52.546;13.230;2023-04-22T13:23:20;5.13;;;4.28;;
51034;SDS011;37062;52.546;13.230;2023-04-22T13:25:51;5.82;;;4.30;;
51034;SDS011;37062;52.546;13.230;2023-04-22T13:28:19;5.25;;;4.43;;
51034;SDS011;37062;52.546;13.230;2023-04-22T13:30:48;5.30;;;3.80;;
51034;SDS011;37062;52.546;13.230;2023-04-22T13:33:16;7.85;;;4.60;;
51034;SDS011;37062;52.546;13.230;2023-04-22T13:35:45;4.45;;;3.58;;
51034;SDS011;37062;52.546;13.230;2023-04-22T13:38:14;4.72;;;4.07;;
51034;SDS011;37062;52.546;13.230;2023-04-22T13:40:42;5.00;;;4.50;;
51034;SDS011;37062;52.546;13.230;2023-04-22T13:43:11;5.35;;;4.55;;
51034;SDS011;37062;52.546;13.230;2023-04-22T13:45:39;5.03;;;4.05;;
51034;SDS011;37062;52.546;13.230;2023-04-22T13:48:08;8.70;;;5.00;;
51034;SDS011;37062;52.546;13.230;2023-04-22T13:50:36;5.72;;;4.53;;
51034;SDS011;37062;52.546;13.230;2023-04-22T13:53:08;11.00;;;5.90;;
51034;SDS011;37062;52.546;13.230;2023-04-22T13:55:38;9.98;;;7.13;;
51034;SDS011;37062;52.546;13.230;2023-04-22T13:58:08;9.18;;;4.80;;
51034;SDS011;37062;52.546;13.230;2023-04-22T14:00:37;8.85;;;5.18;;
51034;SDS011;37062;52.546;13.230;2023-04-22T14:03:05;7.50;;;5.28;;
51034;SDS011;37062;52.546;13.230;2023-04-22T14:05:34;5.20;;;3.88;;
51034;SDS011;37062;52.546;13.230;2023-04-22T14:08:03;10.07;;;5.22;;
51034;SDS011;37062;52.546;13.230;2023-04-22T14:10:31;6.68;;;5.18;;
51034;SDS011;37062;52.546;13.230;2023-04-22T14:13:00;5.70;;;5.10;;
51034;SDS011;37062;52.546;13.230;2023-04-22T14:15:29;10.10;;;4.88;;
51034;SDS011;37062;52.546;13.230;2023-04-22T14:17:57;12.88;;;4.60;;
51034;SDS011;37062;52.546;13.230;2023-04-22T14:20:25;5.85;;;4.57;;
51034;SDS011;37062;52.546;13.230;2023-04-22T14:22:54;9.07;;;4.72;;
51034;SDS011;37062;52.546;13.230;2023-04-22T14:25:22;6.85;;;4.40;;
51034;SDS011;37062;52.546;13.230;2023-04-22T14:27:50;5.93;;;4.50;;
51034;SDS011;37062;52.546;13.230;2023-04-22T14:30:20;6.13;;;4.40;;
51034;SDS011;37062;52.546;13.230;2023-04-22T14:32:48;7.55;;;4.68;;
51034;SDS011;37062;52.546;13.230;2023-04-22T14:35:17;4.60;;;4.20;;
51034;SDS011;37062;52.546;13.230;2023-04-22T14:37:46;5.35;;;4.10;;
51034;SDS011;37062;52.546;13.230;2023-04-22T14:40:14;5.88;;;4.55;;
51034;SDS011;37062;52.546;13.230;2023-04-22T14:42:42;8.52;;;4.35;;
51034;SDS011;37062;52.546;13.230;2023-04-22T14:45:11;12.68;;;4.80;;
51034;SDS011;37062;52.546;13.230;2023-04-22T14:47:42;6.30;;;4.75;;
51034;SDS011;37062;52.546;13.230;2023-04-22T14:50:10;5.45;;;4.15;;
51034;SDS011;37062;52.546;13.230;2023-04-22T14:52:38;10.90;;;4.38;;
51034;SDS011;37062;52.546;13.230;2023-04-22T14:55:07;8.18;;;4.30;;
51034;SDS011;37062;52.546;13.230;2023-04-22T14:57:49;8.30;;;4.38;;
51034;SDS011;37062;52.546;13.230;2023-04-22T15:00:18;6.88;;;4.32;;